sensor_id;sensor_type;location;lat;lon;timestamp;P1;durP1;ratioP1;P2;durP2;ratioP2
51925;SDS011;37952;51.938;15.480;2023-06-22T00:02:04;9.30;;;7.20;;
51925;SDS011;37952;51.938;15.480;2023-06-22T00:05:07;7.90;;;7.20;;
51925;SDS011;37952;51.938;15.480;2023-06-22T00:08:09;7.70;;;7.40;;
51925;SDS011;37952;51.938;15.480;2023-06-22T00:11:12;7.70;;;7.30;;
51925;SDS011;37952;51.938;15.480;2023-06-22T00:14:16;7.60;;;7.10;;
51925;SDS011;37952;51.938;15.480;2023-06-22T00:17:18;8.00;;;7.60;;
51925;SDS011;37952;51.938;15.480;2023-06-22T00:20:21;8.60;;;7.90;;
51925;SDS011;37952;51.938;15.480;2023-06-22T00:23:25;8.40;;;7.90;;
51925;SDS011;37952;51.938;15.480;2023-06-22T00:26:29;7.90;;;7.40;;
51925;SDS011;37952;51.938;15.480;2023-06-22T00:29:32;8.80;;;8.10;;
51925;SDS011;37952;51.938;15.480;2023-06-22T00:32:35;8.20;;;7.40;;
51925;SDS011;37952;51.938;15.480;2023-06-22T00:35:38;7.00;;;6.60;;
51925;SDS011;37952;51.938;15.480;2023-06-22T00:38:43;8.10;;;7.70;;
51925;SDS011;37952;51.938;15.480;2023-06-22T00:41:46;8.50;;;8.00;;
51925;SDS011;37952;51.938;15.480;2023-06-22T00:44:49;7.60;;;7.20;;
51925;SDS011;37952;51.938;15.480;2023-06-22T00:47:52;8.30;;;7.90;;
51925;SDS011;37952;51.938;15.480;2023-06-22T00:50:56;9.30;;;8.40;;
51925;SDS011;37952;51.938;15.480;2023-06-22T00:53:59;8.20;;;7.70;;
51925;SDS011;37952;51.938;15.480;2023-06-22T00:57:02;8.60;;;8.00;;
51925;SDS011;37952;51.938;15.480;2023-06-22T01:00:05;8.30;;;7.80;;
51925;SDS011;37952;51.938;15.480;2023-06-22T01:03:10;8.00;;;7.60;;
51925;SDS011;37952;51.938;15.480;2023-06-22T01:06:15;8.40;;;8.00;;
51925;SDS011;37952;51.938;15.480;2023-06-22T01:09:27;8.30;;;7.90;;
51925;SDS011;37952;51.938;15.480;2023-06-22T01:12:42;8.70;;;8.20;;
51925;SDS011;37952;51.938;15.480;2023-06-22T01:15:55;8.10;;;7.70;;
51925;SDS011;37952;51.938;15.480;2023-06-22T01:19:11;8.90;;;8.30;;
51925;SDS011;37952;51.938;15.480;2023-06-22T01:22:30;9.10;;;8.50;;
51925;SDS011;37952;51.938;15.480;2023-06-22T01:26:20;8.30;;;7.90;;
51925;SDS011;37952;51.938;15.480;2023-06-22T01:29:08;8.20;;;7.60;;
51925;SDS011;37952;51.938;15.480;2023-06-22T01:32:14;8.20;;;7.70;;
51925;SDS011;37952;51.938;15.480;2023-06-22T01:35:17;9.20;;;8.60;;
51925;SDS011;37952;51.938;15.480;2023-06-22T01:38:22;9.00;;;8.50;;
51925;SDS011;37952;51.938;15.480;2023-06-22T01:41:25;10.20;;;8.70;;
51925;SDS011;37952;51.938;15.480;2023-06-22T01:44:30;9.20;;;8.60;;
51925;SDS011;37952;51.938;15.480;2023-06-22T01:47:33;9.70;;;8.70;;
51925;SDS011;37952;51.938;15.480;2023-06-22T01:50:37;8.70;;;8.30;;
51925;SDS011;37952;51.938;15.480;2023-06-22T01:53:40;9.00;;;8.10;;
51925;SDS011;37952;51.938;15.480;2023-06-22T01:56:43;9.30;;;8.50;;
51925;SDS011;37952;51.938;15.480;2023-06-22T02:03:14;8.50;;;7.70;;
51925;SDS011;37952;51.938;15.480;2023-06-22T02:06:27;8.50;;;8.00;;
51925;SDS011;37952;51.938;15.480;2023-06-22T02:09:37;9.10;;;8.50;;
51925;SDS011;37952;51.938;15.480;2023-06-22T02:12:43;9.60;;;9.00;;
51925;SDS011;37952;51.938;15.480;2023-06-22T02:15:47;9.60;;;9.00;;
51925;SDS011;37952;51.938;15.480;2023-06-22T02:18:51;9.20;;;8.70;;
51925;SDS011;37952;51.938;15.480;2023-06-22T02:21:54;10.10;;;9.40;;
51925;SDS011;37952;51.938;15.480;2023-06-22T02:24:57;10.00;;;9.20;;
51925;SDS011;37952;51.938;15.480;2023-06-22T02:27:59;9.80;;;9.00;;
51925;SDS011;37952;51.938;15.480;2023-06-22T02:31:02;11.10;;;10.10;;
51925;SDS011;37952;51.938;15.480;2023-06-22T02:34:05;10.40;;;9.60;;
51925;SDS011;37952;51.938;15.480;2023-06-22T02:37:08;9.90;;;9.10;;
51925;SDS011;37952;51.938;15.480;2023-06-22T02:40:13;9.70;;;9.10;;
51925;SDS011;37952;51.938;15.480;2023-06-22T02:43:15;10.00;;;9.30;;
51925;SDS011;37952;51.938;15.480;2023-06-22T02:46:19;10.60;;;9.90;;
51925;SDS011;37952;51.938;15.480;2023-06-22T02:49:22;10.70;;;9.90;;
51925;SDS011;37952;51.938;15.480;2023-06-22T02:52:25;10.90;;;10.20;;
51925;SDS011;37952;51.938;15.480;2023-06-22T02:55:28;10.90;;;10.20;;
51925;SDS011;37952;51.938;15.480;2023-06-22T02:58:31;11.10;;;10.40;;
51925;SDS011;37952;51.938;15.480;2023-06-22T03:01:41;11.70;;;10.80;;
51925;SDS011;37952;51.938;15.480;2023-06-22T03:04:44;12.10;;;11.30;;
51925;SDS011;37952;51.938;15.480;2023-06-22T03:07:46;11.70;;;10.80;;
51925;SDS011;37952;51.938;15.480;2023-06-22T03:10:49;12.50;;;11.60;;
51925;SDS011;37952;51.938;15.480;2023-06-22T03:13:52;11.50;;;10.70;;
51925;SDS011;37952;51.938;15.480;2023-06-22T03:16:55;10.20;;;9.50;;
51925;SDS011;37952;51.938;15.480;2023-06-22T03:20:04;10.90;;;10.10;;
51925;SDS011;37952;51.938;15.480;2023-06-22T03:23:11;10.30;;;9.60;;
51925;SDS011;37952;51.938;15.480;2023-06-22T03:26:18;10.90;;;10.20;;
51925;SDS011;37952;51.938;15.480;2023-06-22T03:29:20;18.70;;;11.00;;
51925;SDS011;37952;51.938;15.480;2023-06-22T03:32:23;11.30;;;10.50;;
51925;SDS011;37952;51.938;15.480;2023-06-22T03:35:26;11.80;;;10.90;;
51925;SDS011;37952;51.938;15.480;2023-06-22T03:38:29;10.70;;;10.00;;
51925;SDS011;37952;51.938;15.480;2023-06-22T03:41:32;12.40;;;10.60;;
51925;SDS011;37952;51.938;15.480;2023-06-22T03:44:35;10.20;;;9.50;;
51925;SDS011;37952;51.938;15.480;2023-06-22T03:47:38;11.20;;;10.40;;
51925;SDS011;37952;51.938;15.480;2023-06-22T03:50:42;12.10;;;11.10;;
51925;SDS011;37952;51.938;15.480;2023-06-22T03:53:46;11.10;;;10.30;;
51925;SDS011;37952;51.938;15.480;2023-06-22T03:56:50;11.60;;;10.70;;
51925;SDS011;37952;51.938;15.480;2023-06-22T03:59:56;11.60;;;10.60;;
51925;SDS011;37952;51.938;15.480;2023-06-22T04:02:59;11.60;;;10.70;;
51925;SDS011;37952;51.938;15.480;2023-06-22T04:06:03;11.50;;;10.70;;
51925;SDS011;37952;51.938;15.480;2023-06-22T04:09:06;10.90;;;10.10;;
51925;SDS011;37952;51.938;15.480;2023-06-22T04:12:09;10.90;;;10.20;;
51925;SDS011;37952;51.938;15.480;2023-06-22T04:15:12;12.50;;;11.40;;
51925;SDS011;37952;51.938;15.480;2023-06-22T04:18:14;11.90;;;11.00;;
51925;SDS011;37952;51.938;15.480;2023-06-22T04:21:17;12.30;;;11.20;;
51925;SDS011;37952;51.938;15.480;2023-06-22T04:24:22;11.20;;;10.50;;
51925;SDS011;37952;51.938;15.480;2023-06-22T04:27:24;11.50;;;10.80;;
51925;SDS011;37952;51.938;15.480;2023-06-22T04:30:27;9.70;;;9.10;;
51925;SDS011;37952;51.938;15.480;2023-06-22T04:33:31;10.70;;;9.70;;
51925;SDS011;37952;51.938;15.480;2023-06-22T04:36:38;10.90;;;9.90;;
51925;SDS011;37952;51.938;15.480;2023-06-22T04:39:43;11.00;;;10.20;;
51925;SDS011;37952;51.938;15.480;2023-06-22T04:42:46;11.20;;;10.20;;
51925;SDS011;37952;51.938;15.480;2023-06-22T04:45:54;9.40;;;8.70;;
51925;SDS011;37952;51.938;15.480;2023-06-22T04:48:57;8.60;;;7.90;;
51925;SDS011;37952;51.938;15.480;2023-06-22T04:52:00;9.90;;;9.20;;
51925;SDS011;37952;51.938;15.480;2023-06-22T04:55:04;12.70;;;11.40;;
51925;SDS011;37952;51.938;15.480;2023-06-22T04:58:08;12.60;;;11.60;;
51925;SDS011;37952;51.938;15.480;2023-06-22T05:01:10;13.90;;;12.40;;
51925;SDS011;37952;51.938;15.480;2023-06-22T05:04:13;16.20;;;11.30;;
51925;SDS011;37952;51.938;15.480;2023-06-22T05:07:16;10.20;;;9.40;;
51925;SDS011;37952;51.938;15.480;2023-06-22T05:10:19;11.20;;;10.30;;
51925;SDS011;37952;51.938;15.480;2023-06-22T05:13:22;12.90;;;11.80;;
51925;SDS011;37952;51.938;15.480;2023-06-22T05:16:29;13.40;;;11.50;;
51925;SDS011;37952;51.938;15.480;2023-06-22T05:19:31;11.70;;;10.80;;
51925;SDS011;37952;51.938;15.480;2023-06-22T05:22:36;11.30;;;10.40;;
51925;SDS011;37952;51.938;15.480;2023-06-22T05:25:39;10.00;;;9.10;;
51925;SDS011;37952;51.938;15.480;2023-06-22T05:28:42;10.20;;;9.00;;
51925;SDS011;37952;51.938;15.480;2023-06-22T05:31:48;9.90;;;8.80;;
51925;SDS011;37952;51.938;15.480;2023-06-22T05:34:51;10.00;;;9.20;;
51925;SDS011;37952;51.938;15.480;2023-06-22T05:45:04;7.80;;;6.70;;
51925;SDS011;37952;51.938;15.480;2023-06-22T05:48:07;6.80;;;6.40;;
51925;SDS011;37952;51.938;15.480;2023-06-22T05:51:10;7.30;;;6.70;;
51925;SDS011;37952;51.938;15.480;2023-06-22T05:54:13;6.90;;;6.40;;
51925;SDS011;37952;51.938;15.480;2023-06-22T05:57:18;10.90;;;6.70;;
51925;SDS011;37952;51.938;15.480;2023-06-22T06:00:20;7.00;;;6.40;;
51925;SDS011;37952;51.938;15.480;2023-06-22T06:03:24;7.70;;;6.70;;
51925;SDS011;37952;51.938;15.480;2023-06-22T06:06:28;7.40;;;6.70;;
51925;SDS011;37952;51.938;15.480;2023-06-22T06:09:31;7.30;;;6.60;;
51925;SDS011;37952;51.938;15.480;2023-06-22T06:15:48;9.60;;;6.40;;
51925;SDS011;37952;51.938;15.480;2023-06-22T06:18:53;6.90;;;6.40;;
51925;SDS011;37952;51.938;15.480;2023-06-22T06:21:58;17.40;;;6.40;;
51925;SDS011;37952;51.938;15.480;2023-06-22T06:25:01;7.20;;;6.30;;
51925;SDS011;37952;51.938;15.480;2023-06-22T06:28:04;6.70;;;6.10;;
51925;SDS011;37952;51.938;15.480;2023-06-22T06:31:07;6.30;;;5.90;;
51925;SDS011;37952;51.938;15.480;2023-06-22T06:34:17;6.40;;;6.00;;
51925;SDS011;37952;51.938;15.480;2023-06-22T06:40:22;6.60;;;6.10;;
51925;SDS011;37952;51.938;15.480;2023-06-22T06:43:25;5.90;;;5.60;;
51925;SDS011;37952;51.938;15.480;2023-06-22T06:46:28;6.30;;;5.80;;
51925;SDS011;37952;51.938;15.480;2023-06-22T06:49:31;5.90;;;5.50;;
51925;SDS011;37952;51.938;15.480;2023-06-22T06:52:34;7.30;;;6.50;;
51925;SDS011;37952;51.938;15.480;2023-06-22T06:55:40;6.60;;;6.20;;
51925;SDS011;37952;51.938;15.480;2023-06-22T06:58:43;6.60;;;6.20;;
51925;SDS011;37952;51.938;15.480;2023-06-22T07:01:47;6.60;;;6.20;;
51925;SDS011;37952;51.938;15.480;2023-06-22T07:05:01;6.90;;;6.50;;
51925;SDS011;37952;51.938;15.480;2023-06-22T07:08:06;7.20;;;6.50;;
51925;SDS011;37952;51.938;15.480;2023-06-22T07:11:09;7.10;;;6.60;;
51925;SDS011;37952;51.938;15.480;2023-06-22T07:14:12;9.90;;;6.60;;
51925;SDS011;37952;51.938;15.480;2023-06-22T07:17:15;6.90;;;6.40;;
51925;SDS011;37952;51.938;15.480;2023-06-22T07:20:17;8.00;;;7.30;;
51925;SDS011;37952;51.938;15.480;2023-06-22T07:23:22;6.60;;;6.20;;
51925;SDS011;37952;51.938;15.480;2023-06-22T07:26:24;8.20;;;7.40;;
51925;SDS011;37952;51.938;15.480;2023-06-22T07:29:27;6.30;;;5.80;;
51925;SDS011;37952;51.938;15.480;2023-06-22T07:32:30;7.60;;;6.20;;
51925;SDS011;37952;51.938;15.480;2023-06-22T07:35:33;6.30;;;5.90;;
51925;SDS011;37952;51.938;15.480;2023-06-22T07:38:36;6.40;;;6.00;;
51925;SDS011;37952;51.938;15.480;2023-06-22T07:41:40;7.70;;;7.20;;
51925;SDS011;37952;51.938;15.480;2023-06-22T07:44:46;7.10;;;6.50;;
51925;SDS011;37952;51.938;15.480;2023-06-22T07:47:49;7.20;;;6.50;;
51925;SDS011;37952;51.938;15.480;2023-06-22T07:50:52;7.20;;;6.80;;
51925;SDS011;37952;51.938;15.480;2023-06-22T07:53:55;11.30;;;7.50;;
51925;SDS011;37952;51.938;15.480;2023-06-22T07:56:58;7.60;;;7.20;;
51925;SDS011;37952;51.938;15.480;2023-06-22T08:00:02;7.70;;;6.90;;
51925;SDS011;37952;51.938;15.480;2023-06-22T08:03:16;8.10;;;7.30;;
51925;SDS011;37952;51.938;15.480;2023-06-22T08:06:19;7.00;;;6.40;;
51925;SDS011;37952;51.938;15.480;2023-06-22T08:09:22;7.30;;;6.60;;
51925;SDS011;37952;51.938;15.480;2023-06-22T08:12:24;6.80;;;6.40;;
51925;SDS011;37952;51.938;15.480;2023-06-22T08:15:27;9.50;;;6.40;;
51925;SDS011;37952;51.938;15.480;2023-06-22T08:18:31;8.80;;;6.20;;
51925;SDS011;37952;51.938;15.480;2023-06-22T08:21:34;6.80;;;6.30;;
51925;SDS011;37952;51.938;15.480;2023-06-22T08:24:37;9.60;;;5.40;;
51925;SDS011;37952;51.938;15.480;2023-06-22T08:27:39;6.10;;;5.60;;
51925;SDS011;37952;51.938;15.480;2023-06-22T08:30:42;10.40;;;5.70;;
51925;SDS011;37952;51.938;15.480;2023-06-22T08:33:45;5.80;;;4.90;;
51925;SDS011;37952;51.938;15.480;2023-06-22T08:36:51;4.70;;;4.40;;
51925;SDS011;37952;51.938;15.480;2023-06-22T08:39:54;5.20;;;4.80;;
51925;SDS011;37952;51.938;15.480;2023-06-22T08:42:57;5.40;;;4.90;;
51925;SDS011;37952;51.938;15.480;2023-06-22T08:46:00;5.10;;;4.50;;
51925;SDS011;37952;51.938;15.480;2023-06-22T08:49:05;4.40;;;4.20;;
51925;SDS011;37952;51.938;15.480;2023-06-22T08:52:08;4.70;;;4.50;;
51925;SDS011;37952;51.938;15.480;2023-06-22T08:55:11;4.40;;;4.10;;
51925;SDS011;37952;51.938;15.480;2023-06-22T08:58:14;4.70;;;4.40;;
51925;SDS011;37952;51.938;15.480;2023-06-22T09:01:17;16.20;;;4.60;;
51925;SDS011;37952;51.938;15.480;2023-06-22T09:04:19;4.20;;;3.90;;
51925;SDS011;37952;51.938;15.480;2023-06-22T09:07:25;4.50;;;4.20;;
51925;SDS011;37952;51.938;15.480;2023-06-22T09:10:28;4.20;;;3.90;;
51925;SDS011;37952;51.938;15.480;2023-06-22T09:13:32;3.80;;;3.60;;
51925;SDS011;37952;51.938;15.480;2023-06-22T09:16:35;5.80;;;3.80;;
51925;SDS011;37952;51.938;15.480;2023-06-22T09:19:38;4.50;;;4.00;;
51925;SDS011;37952;51.938;15.480;2023-06-22T09:22:40;3.80;;;3.60;;
51925;SDS011;37952;51.938;15.480;2023-06-22T09:25:43;4.20;;;4.00;;
51925;SDS011;37952;51.938;15.480;2023-06-22T09:28:46;3.50;;;3.40;;
51925;SDS011;37952;51.938;15.480;2023-06-22T09:31:49;5.00;;;3.40;;
51925;SDS011;37952;51.938;15.480;2023-06-22T09:34:52;3.60;;;3.40;;
51925;SDS011;37952;51.938;15.480;2023-06-22T09:37:55;4.20;;;4.00;;
51925;SDS011;37952;51.938;15.480;2023-06-22T09:40:58;4.30;;;4.10;;
51925;SDS011;37952;51.938;15.480;2023-06-22T09:44:01;3.90;;;3.60;;
51925;SDS011;37952;51.938;15.480;2023-06-22T09:47:04;3.80;;;3.30;;
51925;SDS011;37952;51.938;15.480;2023-06-22T09:50:07;7.40;;;3.40;;
51925;SDS011;37952;51.938;15.480;2023-06-22T09:53:11;3.60;;;3.40;;
51925;SDS011;37952;51.938;15.480;2023-06-22T09:56:13;3.40;;;3.20;;
51925;SDS011;37952;51.938;15.480;2023-06-22T09:59:17;3.80;;;3.50;;
51925;SDS011;37952;51.938;15.480;2023-06-22T10:02:20;3.30;;;3.10;;
51925;SDS011;37952;51.938;15.480;2023-06-22T10:05:24;3.90;;;3.50;;
51925;SDS011;37952;51.938;15.480;2023-06-22T10:08:28;3.70;;;3.40;;
51925;SDS011;37952;51.938;15.480;2023-06-22T10:11:30;3.60;;;3.30;;
51925;SDS011;37952;51.938;15.480;2023-06-22T10:14:33;3.60;;;3.10;;
51925;SDS011;37952;51.938;15.480;2023-06-22T10:17:36;5.30;;;3.00;;
51925;SDS011;37952;51.938;15.480;2023-06-22T10:20:39;3.30;;;3.00;;
51925;SDS011;37952;51.938;15.480;2023-06-22T10:23:42;5.50;;;3.10;;
51925;SDS011;37952;51.938;15.480;2023-06-22T10:26:44;3.20;;;3.00;;
51925;SDS011;37952;51.938;15.480;2023-06-22T10:29:47;3.20;;;3.00;;
51925;SDS011;37952;51.938;15.480;2023-06-22T10:32:50;3.50;;;3.30;;
51925;SDS011;37952;51.938;15.480;2023-06-22T10:35:53;3.10;;;2.90;;
51925;SDS011;37952;51.938;15.480;2023-06-22T10:38:56;4.60;;;3.10;;
51925;SDS011;37952;51.938;15.480;2023-06-22T10:42:01;2.90;;;2.80;;
51925;SDS011;37952;51.938;15.480;2023-06-22T10:45:04;3.50;;;3.30;;
51925;SDS011;37952;51.938;15.480;2023-06-22T10:48:07;3.30;;;3.10;;
51925;SDS011;37952;51.938;15.480;2023-06-22T10:51:10;3.10;;;3.00;;
51925;SDS011;37952;51.938;15.480;2023-06-22T10:54:13;4.80;;;2.80;;
51925;SDS011;37952;51.938;15.480;2023-06-22T10:57:16;3.20;;;2.70;;
51925;SDS011;37952;51.938;15.480;2023-06-22T11:00:19;3.10;;;2.90;;
51925;SDS011;37952;51.938;15.480;2023-06-22T11:03:21;3.60;;;2.90;;
51925;SDS011;37952;51.938;15.480;2023-06-22T11:06:24;2.70;;;2.60;;
51925;SDS011;37952;51.938;15.480;2023-06-22T11:09:27;4.30;;;3.10;;
51925;SDS011;37952;51.938;15.480;2023-06-22T11:12:31;3.40;;;3.20;;
51925;SDS011;37952;51.938;15.480;2023-06-22T11:15:34;4.30;;;3.00;;
51925;SDS011;37952;51.938;15.480;2023-06-22T11:18:37;2.70;;;2.60;;
51925;SDS011;37952;51.938;15.480;2023-06-22T11:21:40;3.00;;;2.80;;
51925;SDS011;37952;51.938;15.480;2023-06-22T11:24:42;5.40;;;2.80;;
51925;SDS011;37952;51.938;15.480;2023-06-22T11:27:45;3.00;;;2.80;;
51925;SDS011;37952;51.938;15.480;2023-06-22T11:30:48;3.20;;;3.00;;
51925;SDS011;37952;51.938;15.480;2023-06-22T11:33:51;3.30;;;3.10;;
51925;SDS011;37952;51.938;15.480;2023-06-22T11:36:53;2.60;;;2.50;;
51925;SDS011;37952;51.938;15.480;2023-06-22T11:39:56;4.00;;;3.10;;
51925;SDS011;37952;51.938;15.480;2023-06-22T11:43:08;2.90;;;2.70;;
51925;SDS011;37952;51.938;15.480;2023-06-22T11:46:10;3.00;;;2.90;;
51925;SDS011;37952;51.938;15.480;2023-06-22T11:49:13;6.70;;;3.10;;
51925;SDS011;37952;51.938;15.480;2023-06-22T11:52:16;4.70;;;3.10;;
51925;SDS011;37952;51.938;15.480;2023-06-22T11:55:20;3.00;;;2.70;;
51925;SDS011;37952;51.938;15.480;2023-06-22T11:58:23;3.20;;;3.00;;
51925;SDS011;37952;51.938;15.480;2023-06-22T12:01:25;3.20;;;3.00;;
51925;SDS011;37952;51.938;15.480;2023-06-22T12:04:28;2.80;;;2.70;;
51925;SDS011;37952;51.938;15.480;2023-06-22T12:07:31;4.30;;;2.80;;
51925;SDS011;37952;51.938;15.480;2023-06-22T12:10:34;3.00;;;2.80;;
51925;SDS011;37952;51.938;15.480;2023-06-22T12:13:37;4.40;;;2.70;;
51925;SDS011;37952;51.938;15.480;2023-06-22T12:16:39;3.10;;;3.00;;
51925;SDS011;37952;51.938;15.480;2023-06-22T12:19:42;3.30;;;3.10;;
51925;SDS011;37952;51.938;15.480;2023-06-22T12:22:44;2.90;;;2.80;;
51925;SDS011;37952;51.938;15.480;2023-06-22T12:25:47;3.90;;;2.60;;
51925;SDS011;37952;51.938;15.480;2023-06-22T12:28:50;2.80;;;2.60;;
51925;SDS011;37952;51.938;15.480;2023-06-22T12:31:52;5.10;;;2.80;;
51925;SDS011;37952;51.938;15.480;2023-06-22T12:34:56;2.70;;;2.60;;
51925;SDS011;37952;51.938;15.480;2023-06-22T12:37:59;3.00;;;2.80;;
51925;SDS011;37952;51.938;15.480;2023-06-22T12:41:01;2.90;;;2.70;;
51925;SDS011;37952;51.938;15.480;2023-06-22T12:44:05;2.90;;;2.80;;
51925;SDS011;37952;51.938;15.480;2023-06-22T12:47:08;2.90;;;2.80;;
51925;SDS011;37952;51.938;15.480;2023-06-22T12:50:11;3.10;;;2.40;;
51925;SDS011;37952;51.938;15.480;2023-06-22T12:53:13;2.60;;;2.50;;
51925;SDS011;37952;51.938;15.480;2023-06-22T12:56:16;3.10;;;2.90;;
51925;SDS011;37952;51.938;15.480;2023-06-22T12:59:19;4.40;;;2.60;;
51925;SDS011;37952;51.938;15.480;2023-06-22T13:02:21;2.90;;;2.70;;
51925;SDS011;37952;51.938;15.480;2023-06-22T13:05:24;2.70;;;2.60;;
51925;SDS011;37952;51.938;15.480;2023-06-22T13:08:27;2.70;;;2.50;;
51925;SDS011;37952;51.938;15.480;2023-06-22T13:11:50;2.30;;;2.20;;
51925;SDS011;37952;51.938;15.480;2023-06-22T13:14:53;2.60;;;2.30;;
51925;SDS011;37952;51.938;15.480;2023-06-22T13:17:56;3.00;;;2.80;;
51925;SDS011;37952;51.938;15.480;2023-06-22T13:20:59;2.50;;;2.40;;
51925;SDS011;37952;51.938;15.480;2023-06-22T13:24:02;3.20;;;2.50;;
51925;SDS011;37952;51.938;15.480;2023-06-22T13:27:05;2.70;;;2.60;;
51925;SDS011;37952;51.938;15.480;2023-06-22T13:30:09;2.40;;;2.30;;
51925;SDS011;37952;51.938;15.480;2023-06-22T13:33:16;2.80;;;2.70;;
51925;SDS011;37952;51.938;15.480;2023-06-22T13:36:19;3.00;;;2.70;;
51925;SDS011;37952;51.938;15.480;2023-06-22T13:39:22;2.60;;;2.30;;
51925;SDS011;37952;51.938;15.480;2023-06-22T13:42:25;4.40;;;3.00;;
51925;SDS011;37952;51.938;15.480;2023-06-22T13:45:28;3.60;;;2.70;;
51925;SDS011;37952;51.938;15.480;2023-06-22T13:48:31;3.00;;;2.70;;
51925;SDS011;37952;51.938;15.480;2023-06-22T13:51:34;2.70;;;2.60;;
51925;SDS011;37952;51.938;15.480;2023-06-22T13:54:37;2.50;;;2.40;;
51925;SDS011;37952;51.938;15.480;2023-06-22T13:57:40;2.80;;;2.60;;
51925;SDS011;37952;51.938;15.480;2023-06-22T14:00:43;2.50;;;2.40;;
51925;SDS011;37952;51.938;15.480;2023-06-22T14:03:48;3.30;;;2.50;;
51925;SDS011;37952;51.938;15.480;2023-06-22T14:06:50;2.60;;;2.50;;
51925;SDS011;37952;51.938;15.480;2023-06-22T14:09:56;2.60;;;2.40;;
51925;SDS011;37952;51.938;15.480;2023-06-22T14:13:00;2.90;;;2.80;;
51925;SDS011;37952;51.938;15.480;2023-06-22T14:16:03;2.60;;;2.40;;
51925;SDS011;37952;51.938;15.480;2023-06-22T14:19:07;2.50;;;2.20;;
51925;SDS011;37952;51.938;15.480;2023-06-22T14:22:09;2.80;;;2.60;;
51925;SDS011;37952;51.938;15.480;2023-06-22T14:25:12;2.60;;;2.50;;
51925;SDS011;37952;51.938;15.480;2023-06-22T14:28:15;4.10;;;2.30;;
51925;SDS011;37952;51.938;15.480;2023-06-22T14:31:19;2.50;;;2.40;;
51925;SDS011;37952;51.938;15.480;2023-06-22T14:34:21;6.20;;;2.30;;
51925;SDS011;37952;51.938;15.480;2023-06-22T14:37:24;2.50;;;2.30;;
51925;SDS011;37952;51.938;15.480;2023-06-22T14:40:29;2.50;;;2.10;;
51925;SDS011;37952;51.938;15.480;2023-06-22T14:43:49;3.90;;;2.30;;
51925;SDS011;37952;51.938;15.480;2023-06-22T14:46:52;2.70;;;2.50;;
51925;SDS011;37952;51.938;15.480;2023-06-22T14:49:55;4.20;;;2.50;;
51925;SDS011;37952;51.938;15.480;2023-06-22T14:52:58;2.90;;;2.70;;
51925;SDS011;37952;51.938;15.480;2023-06-22T14:56:02;2.90;;;2.80;;
51925;SDS011;37952;51.938;15.480;2023-06-22T14:59:06;2.50;;;2.40;;
51925;SDS011;37952;51.938;15.480;2023-06-22T15:02:09;2.70;;;2.50;;
51925;SDS011;37952;51.938;15.480;2023-06-22T15:05:12;2.70;;;2.50;;
51925;SDS011;37952;51.938;15.480;2023-06-22T15:08:14;2.40;;;2.20;;
51925;SDS011;37952;51.938;15.480;2023-06-22T15:11:17;2.10;;;2.00;;
51925;SDS011;37952;51.938;15.480;2023-06-22T15:14:20;2.10;;;2.00;;
51925;SDS011;37952;51.938;15.480;2023-06-22T15:17:23;1.80;;;1.70;;
51925;SDS011;37952;51.938;15.480;2023-06-22T15:20:26;3.60;;;2.00;;
51925;SDS011;37952;51.938;15.480;2023-06-22T15:23:29;2.40;;;2.30;;
51925;SDS011;37952;51.938;15.480;2023-06-22T15:26:33;2.30;;;2.20;;
51925;SDS011;37952;51.938;15.480;2023-06-22T15:29:36;2.10;;;2.00;;
51925;SDS011;37952;51.938;15.480;2023-06-22T15:32:38;2.50;;;2.30;;
51925;SDS011;37952;51.938;15.480;2023-06-22T15:35:45;3.40;;;2.10;;
51925;SDS011;37952;51.938;15.480;2023-06-22T15:38:48;2.00;;;1.90;;
51925;SDS011;37952;51.938;15.480;2023-06-22T15:41:51;2.30;;;2.20;;
51925;SDS011;37952;51.938;15.480;2023-06-22T15:44:56;2.40;;;2.30;;
51925;SDS011;37952;51.938;15.480;2023-06-22T15:47:59;1.90;;;1.80;;
51925;SDS011;37952;51.938;15.480;2023-06-22T15:51:02;2.40;;;2.00;;
51925;SDS011;37952;51.938;15.480;2023-06-22T15:54:06;2.60;;;2.40;;
51925;SDS011;37952;51.938;15.480;2023-06-22T15:57:09;2.20;;;2.10;;
51925;SDS011;37952;51.938;15.480;2023-06-22T16:00:15;2.20;;;2.10;;
51925;SDS011;37952;51.938;15.480;2023-06-22T16:03:20;2.30;;;2.10;;
51925;SDS011;37952;51.938;15.480;2023-06-22T16:06:23;2.30;;;2.20;;
51925;SDS011;37952;51.938;15.480;2023-06-22T16:09:26;2.30;;;2.20;;
51925;SDS011;37952;51.938;15.480;2023-06-22T16:12:29;2.20;;;2.10;;
51925;SDS011;37952;51.938;15.480;2023-06-22T16:15:32;2.10;;;2.00;;
51925;SDS011;37952;51.938;15.480;2023-06-22T16:18:34;3.30;;;2.00;;
51925;SDS011;37952;51.938;15.480;2023-06-22T16:21:37;2.10;;;2.00;;
51925;SDS011;37952;51.938;15.480;2023-06-22T16:24:40;2.00;;;1.90;;
51925;SDS011;37952;51.938;15.480;2023-06-22T16:27:44;2.70;;;2.30;;
51925;SDS011;37952;51.938;15.480;2023-06-22T16:30:48;5.00;;;2.20;;
51925;SDS011;37952;51.938;15.480;2023-06-22T16:33:54;2.20;;;2.10;;
51925;SDS011;37952;51.938;15.480;2023-06-22T16:36:57;2.20;;;2.10;;
51925;SDS011;37952;51.938;15.480;2023-06-22T16:40:00;2.40;;;2.20;;
51925;SDS011;37952;51.938;15.480;2023-06-22T16:43:03;2.20;;;2.10;;
51925;SDS011;37952;51.938;15.480;2023-06-22T16:46:05;2.20;;;2.10;;
51925;SDS011;37952;51.938;15.480;2023-06-22T16:49:08;3.90;;;2.30;;
51925;SDS011;37952;51.938;15.480;2023-06-22T16:52:11;2.80;;;2.60;;
51925;SDS011;37952;51.938;15.480;2023-06-22T16:55:14;2.50;;;2.30;;
51925;SDS011;37952;51.938;15.480;2023-06-22T16:58:17;2.80;;;2.10;;
51925;SDS011;37952;51.938;15.480;2023-06-22T17:01:24;2.10;;;1.90;;
51925;SDS011;37952;51.938;15.480;2023-06-22T17:04:29;2.60;;;2.00;;
51925;SDS011;37952;51.938;15.480;2023-06-22T17:07:33;3.00;;;1.80;;
51925;SDS011;37952;51.938;15.480;2023-06-22T17:10:40;2.50;;;2.30;;
51925;SDS011;37952;51.938;15.480;2023-06-22T17:13:43;2.80;;;2.30;;
51925;SDS011;37952;51.938;15.480;2023-06-22T17:16:48;2.40;;;2.20;;
51925;SDS011;37952;51.938;15.480;2023-06-22T17:19:52;2.80;;;2.30;;
51925;SDS011;37952;51.938;15.480;2023-06-22T17:22:55;3.60;;;2.00;;
51925;SDS011;37952;51.938;15.480;2023-06-22T17:25:58;2.30;;;2.10;;
51925;SDS011;37952;51.938;15.480;2023-06-22T17:29:04;3.20;;;2.00;;
51925;SDS011;37952;51.938;15.480;2023-06-22T17:32:11;2.20;;;2.10;;
51925;SDS011;37952;51.938;15.480;2023-06-22T17:35:13;1.90;;;1.80;;
51925;SDS011;37952;51.938;15.480;2023-06-22T17:38:20;2.10;;;2.00;;
51925;SDS011;37952;51.938;15.480;2023-06-22T17:41:31;2.10;;;2.00;;
51925;SDS011;37952;51.938;15.480;2023-06-22T17:44:35;3.80;;;2.20;;
51925;SDS011;37952;51.938;15.480;2023-06-22T17:47:38;2.70;;;2.10;;
51925;SDS011;37952;51.938;15.480;2023-06-22T17:50:41;3.20;;;1.80;;
51925;SDS011;37952;51.938;15.480;2023-06-22T17:53:48;1.70;;;1.60;;
51925;SDS011;37952;51.938;15.480;2023-06-22T17:59:54;1.80;;;1.70;;
51925;SDS011;37952;51.938;15.480;2023-06-22T18:02:57;2.80;;;2.10;;
51925;SDS011;37952;51.938;15.480;2023-06-22T18:06:01;2.40;;;2.20;;
51925;SDS011;37952;51.938;15.480;2023-06-22T18:09:03;2.50;;;2.40;;
51925;SDS011;37952;51.938;15.480;2023-06-22T18:12:09;4.30;;;2.20;;
51925;SDS011;37952;51.938;15.480;2023-06-22T18:15:12;2.70;;;2.00;;
51925;SDS011;37952;51.938;15.480;2023-06-22T18:18:15;2.20;;;2.10;;
51925;SDS011;37952;51.938;15.480;2023-06-22T18:21:19;2.20;;;2.10;;
51925;SDS011;37952;51.938;15.480;2023-06-22T18:24:23;2.20;;;2.10;;
51925;SDS011;37952;51.938;15.480;2023-06-22T18:27:27;2.00;;;1.90;;